sensor_id;sensor_type;location;lat;lon;timestamp;P1;P2;P0
43280;PMS5003;62175;49.416;8.690;2022-12-18T00:02:13;75;67;
43280;PMS5003;62175;49.416;8.690;2022-12-18T00:04:40;79;68;
43280;PMS5003;62175;49.416;8.690;2022-12-18T00:07:08;81;67;
43280;PMS5003;62175;49.416;8.690;2022-12-18T00:09:35;78;65;
43280;PMS5003;62175;49.416;8.690;2022-12-18T00:12:02;75;61;
43280;PMS5003;62175;49.416;8.690;2022-12-18T00:14:29;77;61;
43280;PMS5003;62175;49.416;8.690;2022-12-18T00:16:57;74;67;
43280;PMS5003;62175;49.416;8.690;2022-12-18T00:19:24;78;60;
43280;PMS5003;62175;49.416;8.690;2022-12-18T00:21:51;74;58;
43280;PMS5003;62175;49.416;8.690;2022-12-18T00:24:18;83;65;
43280;PMS5003;62175;49.416;8.690;2022-12-18T00:26:45;73;62;
43280;PMS5003;62175;49.416;8.690;2022-12-18T00:29:13;73;60;
43280;PMS5003;62175;49.416;8.690;2022-12-18T00:31:40;75;64;
43280;PMS5003;62175;49.416;8.690;2022-12-18T00:34:09;74;62;
43280;PMS5003;62175;49.416;8.690;2022-12-18T00:36:37;74;66;
43280;PMS5003;62175;49.416;8.690;2022-12-18T00:39:04;73;59;
43280;PMS5003;62175;49.416;8.690;2022-12-18T00:41:32;68;54;
43280;PMS5003;62175;49.416;8.690;2022-12-18T00:43:59;70;58;
43280;PMS5003;62175;49.416;8.690;2022-12-18T00:46:26;72;63;
43280;PMS5003;62175;49.416;8.690;2022-12-18T00:48:53;74;62;
43280;PMS5003;62175;49.416;8.690;2022-12-18T00:51:20;85;69;
43280;PMS5003;62175;49.416;8.690;2022-12-18T00:53:48;70;61;
43280;PMS5003;62175;49.416;8.690;2022-12-18T00:56:15;71;64;
43280;PMS5003;62175;49.416;8.690;2022-12-18T00:58:42;74;67;
43280;PMS5003;62175;49.416;8.690;2022-12-18T01:01:09;72;61;
43280;PMS5003;62175;49.416;8.690;2022-12-18T01:03:36;80;68;
43280;PMS5003;62175;49.416;8.690;2022-12-18T01:06:05;73;64;
43280;PMS5003;62175;49.416;8.690;2022-12-18T01:08:33;78;64;
43280;PMS5003;62175;49.416;8.690;2022-12-18T01:11:01;79;66;
43280;PMS5003;62175;49.416;8.690;2022-12-18T01:13:34;71;63;
43280;PMS5003;62175;49.416;8.690;2022-12-18T01:16:01;81;67;
43280;PMS5003;62175;49.416;8.690;2022-12-18T01:18:29;74;64;
43280;PMS5003;62175;49.416;8.690;2022-12-18T01:20:56;79;71;
43280;PMS5003;62175;49.416;8.690;2022-12-18T01:23:23;80;70;
43280;PMS5003;62175;49.416;8.690;2022-12-18T01:25:51;87;72;
43280;PMS5003;62175;49.416;8.690;2022-12-18T01:28:18;73;64;
43280;PMS5003;62175;49.416;8.690;2022-12-18T01:30:46;68;63;
43280;PMS5003;62175;49.416;8.690;2022-12-18T01:33:14;86;73;
43280;PMS5003;62175;49.416;8.690;2022-12-18T01:35:42;79;70;
43280;PMS5003;62175;49.416;8.690;2022-12-18T01:38:10;80;65;
43280;PMS5003;62175;49.416;8.690;2022-12-18T01:40:37;87;67;
43280;PMS5003;62175;49.416;8.690;2022-12-18T01:43:04;79;65;
43280;PMS5003;62175;49.416;8.690;2022-12-18T01:45:32;84;70;
43280;PMS5003;62175;49.416;8.690;2022-12-18T01:48:00;70;63;
43280;PMS5003;62175;49.416;8.690;2022-12-18T01:50:31;77;65;
43280;PMS5003;62175;49.416;8.690;2022-12-18T01:53:05;66;60;
43280;PMS5003;62175;49.416;8.690;2022-12-18T01:55:36;72;60;
43280;PMS5003;62175;49.416;8.690;2022-12-18T01:58:07;72;60;
43280;PMS5003;62175;49.416;8.690;2022-12-18T02:00:35;80;66;
43280;PMS5003;62175;49.416;8.690;2022-12-18T02:03:02;72;60;
43280;PMS5003;62175;49.416;8.690;2022-12-18T02:05:34;84;69;
43280;PMS5003;62175;49.416;8.690;2022-12-18T02:08:10;79;66;
43280;PMS5003;62175;49.416;8.690;2022-12-18T02:10:44;82;70;
43280;PMS5003;62175;49.416;8.690;2022-12-18T02:13:20;74;64;
43280;PMS5003;62175;49.416;8.690;2022-12-18T02:15:56;78;63;
43280;PMS5003;62175;49.416;8.690;2022-12-18T02:18:30;71;64;
43280;PMS5003;62175;49.416;8.690;2022-12-18T02:21:04;75;61;
43280;PMS5003;62175;49.416;8.690;2022-12-18T02:23:44;69;67;
43280;PMS5003;62175;49.416;8.690;2022-12-18T02:26:18;73;65;
43280;PMS5003;62175;49.416;8.690;2022-12-18T02:28:51;69;62;
43280;PMS5003;62175;49.416;8.690;2022-12-18T02:31:21;69;57;
43280;PMS5003;62175;49.416;8.690;2022-12-18T02:33:51;66;62;
43280;PMS5003;62175;49.416;8.690;2022-12-18T02:36:23;67;60;
43280;PMS5003;62175;49.416;8.690;2022-12-18T02:38:51;62;59;
43280;PMS5003;62175;49.416;8.690;2022-12-18T02:41:20;62;58;
43280;PMS5003;62175;49.416;8.690;2022-12-18T02:43:49;71;64;
43280;PMS5003;62175;49.416;8.690;2022-12-18T02:46:25;66;61;
43280;PMS5003;62175;49.416;8.690;2022-12-18T02:48:58;66;58;
43280;PMS5003;62175;49.416;8.690;2022-12-18T02:51:34;66;56;
43280;PMS5003;62175;49.416;8.690;2022-12-18T02:54:09;71;65;
43280;PMS5003;62175;49.416;8.690;2022-12-18T02:56:48;84;70;
43280;PMS5003;62175;49.416;8.690;2022-12-18T02:59:18;73;65;
43280;PMS5003;62175;49.416;8.690;2022-12-18T03:01:51;77;65;
43280;PMS5003;62175;49.416;8.690;2022-12-18T03:04:23;90;75;
43280;PMS5003;62175;49.416;8.690;2022-12-18T03:06:55;69;59;
43280;PMS5003;62175;49.416;8.690;2022-12-18T03:09:28;78;65;
43280;PMS5003;62175;49.416;8.690;2022-12-18T03:12:02;67;62;
43280;PMS5003;62175;49.416;8.690;2022-12-18T03:14:36;71;64;
43280;PMS5003;62175;49.416;8.690;2022-12-18T03:17:09;65;60;
43280;PMS5003;62175;49.416;8.690;2022-12-18T03:19:40;72;58;
43280;PMS5003;62175;49.416;8.690;2022-12-18T03:22:10;76;66;
43280;PMS5003;62175;49.416;8.690;2022-12-18T03:24:38;73;63;
43280;PMS5003;62175;49.416;8.690;2022-12-18T03:27:08;79;66;
43280;PMS5003;62175;49.416;8.690;2022-12-18T03:29:40;75;66;
43280;PMS5003;62175;49.416;8.690;2022-12-18T03:32:15;82;62;
43280;PMS5003;62175;49.416;8.690;2022-12-18T03:34:48;72;59;
43280;PMS5003;62175;49.416;8.690;2022-12-18T03:37:20;77;67;
43280;PMS5003;62175;49.416;8.690;2022-12-18T03:39:48;77;67;
43280;PMS5003;62175;49.416;8.690;2022-12-18T03:42:15;79;66;
43280;PMS5003;62175;49.416;8.690;2022-12-18T03:44:53;75;65;
43280;PMS5003;62175;49.416;8.690;2022-12-18T03:47:26;75;60;
43280;PMS5003;62175;49.416;8.690;2022-12-18T03:49:59;79;66;
43280;PMS5003;62175;49.416;8.690;2022-12-18T03:52:36;75;64;
43280;PMS5003;62175;49.416;8.690;2022-12-18T03:55:07;77;67;
43280;PMS5003;62175;49.416;8.690;2022-12-18T03:57:35;80;72;
43280;PMS5003;62175;49.416;8.690;2022-12-18T04:00:06;69;58;
43280;PMS5003;62175;49.416;8.690;2022-12-18T04:02:35;71;62;
43280;PMS5003;62175;49.416;8.690;2022-12-18T04:05:06;76;64;
43280;PMS5003;62175;49.416;8.690;2022-12-18T04:07:35;65;53;
43280;PMS5003;62175;49.416;8.690;2022-12-18T04:10:05;71;58;
43280;PMS5003;62175;49.416;8.690;2022-12-18T04:12:36;69;63;
43280;PMS5003;62175;49.416;8.690;2022-12-18T04:15:04;67;58;
43280;PMS5003;62175;49.416;8.690;2022-12-18T04:17:32;75;64;
43280;PMS5003;62175;49.416;8.690;2022-12-18T04:19:59;65;55;
43280;PMS5003;62175;49.416;8.690;2022-12-18T04:22:27;62;48;
43280;PMS5003;62175;49.416;8.690;2022-12-18T04:24:54;64;56;
43280;PMS5003;62175;49.416;8.690;2022-12-18T04:27:21;69;55;
43280;PMS5003;62175;49.416;8.690;2022-12-18T04:29:48;62;56;
43280;PMS5003;62175;49.416;8.690;2022-12-18T04:32:15;76;61;
43280;PMS5003;62175;49.416;8.690;2022-12-18T04:34:42;67;56;
43280;PMS5003;62175;49.416;8.690;2022-12-18T04:37:09;64;55;
43280;PMS5003;62175;49.416;8.690;2022-12-18T04:39:37;67;58;
43280;PMS5003;62175;49.416;8.690;2022-12-18T04:42:04;62;52;
43280;PMS5003;62175;49.416;8.690;2022-12-18T04:44:31;67;59;
43280;PMS5003;62175;49.416;8.690;2022-12-18T04:46:58;65;60;
43280;PMS5003;62175;49.416;8.690;2022-12-18T04:49:25;65;56;
43280;PMS5003;62175;49.416;8.690;2022-12-18T04:51:52;67;52;
43280;PMS5003;62175;49.416;8.690;2022-12-18T04:54:20;71;60;
43280;PMS5003;62175;49.416;8.690;2022-12-18T04:56:47;68;60;
43280;PMS5003;62175;49.416;8.690;2022-12-18T04:59:15;69;60;
43280;PMS5003;62175;49.416;8.690;2022-12-18T05:01:42;69;58;
43280;PMS5003;62175;49.416;8.690;2022-12-18T05:04:09;69;59;
43280;PMS5003;62175;49.416;8.690;2022-12-18T05:06:36;68;59;
43280;PMS5003;62175;49.416;8.690;2022-12-18T05:09:03;67;61;
43280;PMS5003;62175;49.416;8.690;2022-12-18T05:11:30;79;62;
43280;PMS5003;62175;49.416;8.690;2022-12-18T05:13:58;67;55;
43280;PMS5003;62175;49.416;8.690;2022-12-18T05:16:24;68;58;
43280;PMS5003;62175;49.416;8.690;2022-12-18T05:18:51;74;60;
43280;PMS5003;62175;49.416;8.690;2022-12-18T05:21:19;70;61;
43280;PMS5003;62175;49.416;8.690;2022-12-18T05:23:46;66;59;
43280;PMS5003;62175;49.416;8.690;2022-12-18T05:26:14;72;66;
43280;PMS5003;62175;49.416;8.690;2022-12-18T05:28:43;58;50;
43280;PMS5003;62175;49.416;8.690;2022-12-18T05:31:11;69;54;
43280;PMS5003;62175;49.416;8.690;2022-12-18T05:33:38;74;56;
43280;PMS5003;62175;49.416;8.690;2022-12-18T05:36:06;64;55;
43280;PMS5003;62175;49.416;8.690;2022-12-18T05:38:35;62;55;
43280;PMS5003;62175;49.416;8.690;2022-12-18T05:41:04;71;59;
43280;PMS5003;62175;49.416;8.690;2022-12-18T05:43:33;69;60;
43280;PMS5003;62175;49.416;8.690;2022-12-18T05:46:03;67;58;
43280;PMS5003;62175;49.416;8.690;2022-12-18T05:48:31;75;60;
43280;PMS5003;62175;49.416;8.690;2022-12-18T05:51:03;78;68;
43280;PMS5003;62175;49.416;8.690;2022-12-18T05:53:32;68;58;
43280;PMS5003;62175;49.416;8.690;2022-12-18T05:56:01;73;61;
43280;PMS5003;62175;49.416;8.690;2022-12-18T05:58:30;73;56;
43280;PMS5003;62175;49.416;8.690;2022-12-18T06:01:05;61;52;
43280;PMS5003;62175;49.416;8.690;2022-12-18T06:03:34;67;55;
43280;PMS5003;62175;49.416;8.690;2022-12-18T06:06:01;68;54;
43280;PMS5003;62175;49.416;8.690;2022-12-18T06:08:30;62;54;
43280;PMS5003;62175;49.416;8.690;2022-12-18T06:10:57;73;63;
43280;PMS5003;62175;49.416;8.690;2022-12-18T06:13:24;66;60;
43280;PMS5003;62175;49.416;8.690;2022-12-18T06:15:51;75;58;
43280;PMS5003;62175;49.416;8.690;2022-12-18T06:18:19;56;49;
43280;PMS5003;62175;49.416;8.690;2022-12-18T06:20:54;71;60;
43280;PMS5003;62175;49.416;8.690;2022-12-18T06:23:21;61;52;
43280;PMS5003;62175;49.416;8.690;2022-12-18T06:25:48;68;55;
43280;PMS5003;62175;49.416;8.690;2022-12-18T06:28:16;62;49;
43280;PMS5003;62175;49.416;8.690;2022-12-18T06:30:43;60;48;
43280;PMS5003;62175;49.416;8.690;2022-12-18T06:33:10;68;54;
43280;PMS5003;62175;49.416;8.690;2022-12-18T06:35:37;63;52;
43280;PMS5003;62175;49.416;8.690;2022-12-18T06:38:04;66;59;
43280;PMS5003;62175;49.416;8.690;2022-12-18T06:40:32;60;49;
43280;PMS5003;62175;49.416;8.690;2022-12-18T06:42:59;70;57;
43280;PMS5003;62175;49.416;8.690;2022-12-18T06:45:26;53;44;
43280;PMS5003;62175;49.416;8.690;2022-12-18T06:47:53;56;49;
43280;PMS5003;62175;49.416;8.690;2022-12-18T06:50:21;52;43;
43280;PMS5003;62175;49.416;8.690;2022-12-18T06:52:48;56;50;
43280;PMS5003;62175;49.416;8.690;2022-12-18T06:55:14;62;54;
43280;PMS5003;62175;49.416;8.690;2022-12-18T06:57:42;59;49;
43280;PMS5003;62175;49.416;8.690;2022-12-18T07:00:09;55;50;
43280;PMS5003;62175;49.416;8.690;2022-12-18T07:02:36;49;46;
43280;PMS5003;62175;49.416;8.690;2022-12-18T07:05:04;73;58;
43280;PMS5003;62175;49.416;8.690;2022-12-18T07:07:33;66;54;
43280;PMS5003;62175;49.416;8.690;2022-12-18T07:10:00;59;52;
43280;PMS5003;62175;49.416;8.690;2022-12-18T07:12:29;65;52;
43280;PMS5003;62175;49.416;8.690;2022-12-18T07:14:56;55;47;
43280;PMS5003;62175;49.416;8.690;2022-12-18T07:17:23;63;50;
43280;PMS5003;62175;49.416;8.690;2022-12-18T07:19:50;64;56;
43280;PMS5003;62175;49.416;8.690;2022-12-18T07:22:17;66;53;
43280;PMS5003;62175;49.416;8.690;2022-12-18T07:24:45;59;50;
43280;PMS5003;62175;49.416;8.690;2022-12-18T07:27:12;55;42;
43280;PMS5003;62175;49.416;8.690;2022-12-18T07:29:39;64;49;
43280;PMS5003;62175;49.416;8.690;2022-12-18T07:32:06;62;55;
43280;PMS5003;62175;49.416;8.690;2022-12-18T07:34:33;61;48;
43280;PMS5003;62175;49.416;8.690;2022-12-18T07:37:00;59;53;
43280;PMS5003;62175;49.416;8.690;2022-12-18T07:39:27;65;55;
43280;PMS5003;62175;49.416;8.690;2022-12-18T07:41:54;60;50;
43280;PMS5003;62175;49.416;8.690;2022-12-18T07:44:21;67;59;
43280;PMS5003;62175;49.416;8.690;2022-12-18T07:46:49;60;55;
43280;PMS5003;62175;49.416;8.690;2022-12-18T07:49:16;68;58;
43280;PMS5003;62175;49.416;8.690;2022-12-18T07:51:44;65;60;
43280;PMS5003;62175;49.416;8.690;2022-12-18T07:54:11;71;59;
43280;PMS5003;62175;49.416;8.690;2022-12-18T07:56:38;59;54;
43280;PMS5003;62175;49.416;8.690;2022-12-18T07:59:05;68;58;
43280;PMS5003;62175;49.416;8.690;2022-12-18T08:01:32;63;54;
43280;PMS5003;62175;49.416;8.690;2022-12-18T08:04:00;64;57;
43280;PMS5003;62175;49.416;8.690;2022-12-18T08:06:28;69;60;
43280;PMS5003;62175;49.416;8.690;2022-12-18T08:08:55;68;55;
43280;PMS5003;62175;49.416;8.690;2022-12-18T08:11:24;62;54;
43280;PMS5003;62175;49.416;8.690;2022-12-18T08:13:53;63;57;
43280;PMS5003;62175;49.416;8.690;2022-12-18T08:16:21;59;48;
43280;PMS5003;62175;49.416;8.690;2022-12-18T08:18:48;63;56;
43280;PMS5003;62175;49.416;8.690;2022-12-18T08:21:18;53;50;
43280;PMS5003;62175;49.416;8.690;2022-12-18T08:23:47;60;53;
43280;PMS5003;62175;49.416;8.690;2022-12-18T08:26:15;65;54;
43280;PMS5003;62175;49.416;8.690;2022-12-18T08:28:43;65;55;
43280;PMS5003;62175;49.416;8.690;2022-12-18T08:31:10;59;51;
43280;PMS5003;62175;49.416;8.690;2022-12-18T08:33:38;63;53;
43280;PMS5003;62175;49.416;8.690;2022-12-18T08:36:07;61;50;
43280;PMS5003;62175;49.416;8.690;2022-12-18T08:38:36;59;52;
43280;PMS5003;62175;49.416;8.690;2022-12-18T08:41:04;57;47;
43280;PMS5003;62175;49.416;8.690;2022-12-18T08:43:32;54;49;
43280;PMS5003;62175;49.416;8.690;2022-12-18T08:46:00;59;48;
43280;PMS5003;62175;49.416;8.690;2022-12-18T08:48:26;55;52;
43280;PMS5003;62175;49.416;8.690;2022-12-18T08:50:54;56;50;
43280;PMS5003;62175;49.416;8.690;2022-12-18T08:53:24;61;50;
43280;PMS5003;62175;49.416;8.690;2022-12-18T08:55:52;59;51;
43280;PMS5003;62175;49.416;8.690;2022-12-18T08:58:20;64;54;
43280;PMS5003;62175;49.416;8.690;2022-12-18T09:00:47;51;47;
43280;PMS5003;62175;49.416;8.690;2022-12-18T09:03:15;45;41;
43280;PMS5003;62175;49.416;8.690;2022-12-18T09:05:45;51;43;
43280;PMS5003;62175;49.416;8.690;2022-12-18T09:08:17;50;45;
43280;PMS5003;62175;49.416;8.690;2022-12-18T09:10:45;50;43;
43280;PMS5003;62175;49.416;8.690;2022-12-18T09:13:14;50;45;
43280;PMS5003;62175;49.416;8.690;2022-12-18T09:15:42;53;44;
43280;PMS5003;62175;49.416;8.690;2022-12-18T09:18:11;52;44;
43280;PMS5003;62175;49.416;8.690;2022-12-18T09:20:40;41;36;
43280;PMS5003;62175;49.416;8.690;2022-12-18T09:23:07;52;49;
43280;PMS5003;62175;49.416;8.690;2022-12-18T09:25:36;57;46;
43280;PMS5003;62175;49.416;8.690;2022-12-18T09:28:05;49;43;
43280;PMS5003;62175;49.416;8.690;2022-12-18T09:30:33;45;42;
43280;PMS5003;62175;49.416;8.690;2022-12-18T09:33:02;56;50;
43280;PMS5003;62175;49.416;8.690;2022-12-18T09:35:30;52;46;
43280;PMS5003;62175;49.416;8.690;2022-12-18T09:37:57;46;42;
43280;PMS5003;62175;49.416;8.690;2022-12-18T09:40:25;64;52;
43280;PMS5003;62175;49.416;8.690;2022-12-18T09:42:59;54;45;
43280;PMS5003;62175;49.416;8.690;2022-12-18T09:45:30;53;45;
43280;PMS5003;62175;49.416;8.690;2022-12-18T09:48:09;43;40;
43280;PMS5003;62175;49.416;8.690;2022-12-18T09:50:42;45;38;
43280;PMS5003;62175;49.416;8.690;2022-12-18T09:53:13;52;47;
43280;PMS5003;62175;49.416;8.690;2022-12-18T09:55:46;55;50;
43280;PMS5003;62175;49.416;8.690;2022-12-18T09:58:15;48;40;
43280;PMS5003;62175;49.416;8.690;2022-12-18T10:00:47;53;44;
43280;PMS5003;62175;49.416;8.690;2022-12-18T10:03:18;51;45;
43280;PMS5003;62175;49.416;8.690;2022-12-18T10:05:48;50;40;
43280;PMS5003;62175;49.416;8.690;2022-12-18T10:08:29;45;36;
43280;PMS5003;62175;49.416;8.690;2022-12-18T10:11:09;44;39;
43280;PMS5003;62175;49.416;8.690;2022-12-18T10:13:54;47;40;
43280;PMS5003;62175;49.416;8.690;2022-12-18T10:16:33;48;41;
43280;PMS5003;62175;49.416;8.690;2022-12-18T10:19:15;53;43;
43280;PMS5003;62175;49.416;8.690;2022-12-18T10:21:56;50;46;
43280;PMS5003;62175;49.416;8.690;2022-12-18T10:24:35;53;44;
43280;PMS5003;62175;49.416;8.690;2022-12-18T10:27:10;49;41;
43280;PMS5003;62175;49.416;8.690;2022-12-18T10:29:41;57;47;
43280;PMS5003;62175;49.416;8.690;2022-12-18T10:32:13;50;46;
43280;PMS5003;62175;49.416;8.690;2022-12-18T10:34:45;48;40;
43280;PMS5003;62175;49.416;8.690;2022-12-18T10:37:15;42;37;
43280;PMS5003;62175;49.416;8.690;2022-12-18T10:39:44;49;41;
43280;PMS5003;62175;49.416;8.690;2022-12-18T10:42:14;47;38;
43280;PMS5003;62175;49.416;8.690;2022-12-18T10:44:43;41;37;
43280;PMS5003;62175;49.416;8.690;2022-12-18T10:47:12;43;41;
43280;PMS5003;62175;49.416;8.690;2022-12-18T10:49:46;47;40;
43280;PMS5003;62175;49.416;8.690;2022-12-18T10:52:16;46;40;
43280;PMS5003;62175;49.416;8.690;2022-12-18T10:54:46;50;46;
43280;PMS5003;62175;49.416;8.690;2022-12-18T10:57:17;41;39;
43280;PMS5003;62175;49.416;8.690;2022-12-18T10:59:59;47;39;
43280;PMS5003;62175;49.416;8.690;2022-12-18T11:02:46;53;44;
43280;PMS5003;62175;49.416;8.690;2022-12-18T11:05:30;61;43;
43280;PMS5003;62175;49.416;8.690;2022-12-18T11:07:59;55;44;
43280;PMS5003;62175;49.416;8.690;2022-12-18T11:10:28;56;42;
43280;PMS5003;62175;49.416;8.690;2022-12-18T11:14:54;43;42;
43280;PMS5003;62175;49.416;8.690;2022-12-18T11:17:28;42;34;
43280;PMS5003;62175;49.416;8.690;2022-12-18T11:19:58;44;40;
43280;PMS5003;62175;49.416;8.690;2022-12-18T11:22:27;44;37;
43280;PMS5003;62175;49.416;8.690;2022-12-18T11:24:57;49;40;
43280;PMS5003;62175;49.416;8.690;2022-12-18T11:27:26;52;44;
43280;PMS5003;62175;49.416;8.690;2022-12-18T11:30:06;35;33;
43280;PMS5003;62175;49.416;8.690;2022-12-18T11:32:56;48;38;
43280;PMS5003;62175;49.416;8.690;2022-12-18T11:36:45;41;39;
43280;PMS5003;62175;49.416;8.690;2022-12-18T11:39:15;48;40;
43280;PMS5003;62175;49.416;8.690;2022-12-18T11:41:49;45;41;
43280;PMS5003;62175;49.416;8.690;2022-12-18T11:44:24;45;41;
43280;PMS5003;62175;49.416;8.690;2022-12-18T11:46:55;51;44;
43280;PMS5003;62175;49.416;8.690;2022-12-18T23:02:53;49;39;
43280;PMS5003;62175;49.416;8.690;2022-12-18T23:05:20;46;39;
43280;PMS5003;62175;49.416;8.690;2022-12-18T23:07:47;55;37;
43280;PMS5003;62175;49.416;8.690;2022-12-18T23:10:14;40;37;
43280;PMS5003;62175;49.416;8.690;2022-12-18T23:12:42;40;36;
43280;PMS5003;62175;49.416;8.690;2022-12-18T23:15:09;46;40;
43280;PMS5003;62175;49.416;8.690;2022-12-18T23:17:37;49;42;
43280;PMS5003;62175;49.416;8.690;2022-12-18T23:20:05;44;38;
43280;PMS5003;62175;49.416;8.690;2022-12-18T23:22:32;52;46;
43280;PMS5003;62175;49.416;8.690;2022-12-18T23:24:59;48;39;
43280;PMS5003;62175;49.416;8.690;2022-12-18T23:27:27;47;41;
43280;PMS5003;62175;49.416;8.690;2022-12-18T23:29:55;40;36;
43280;PMS5003;62175;49.416;8.690;2022-12-18T23:32:22;50;41;
43280;PMS5003;62175;49.416;8.690;2022-12-18T23:34:49;44;40;
43280;PMS5003;62175;49.416;8.690;2022-12-18T23:37:16;41;36;
43280;PMS5003;62175;49.416;8.690;2022-12-18T23:39:43;48;40;
43280;PMS5003;62175;49.416;8.690;2022-12-18T23:42:10;50;39;
43280;PMS5003;62175;49.416;8.690;2022-12-18T23:44:38;42;41;
43280;PMS5003;62175;49.416;8.690;2022-12-18T23:47:05;47;39;
43280;PMS5003;62175;49.416;8.690;2022-12-18T23:49:32;48;40;
43280;PMS5003;62175;49.416;8.690;2022-12-18T23:51:59;43;37;
43280;PMS5003;62175;49.416;8.690;2022-12-18T23:54:26;39;37;
43280;PMS5003;62175;49.416;8.690;2022-12-18T23:56:53;44;38;
43280;PMS5003;62175;49.416;8.690;2022-12-18T23:59:20;40;37;
